Itapebi, Brazil
Current Conditions -  °F | °C
As of 12:00 AM on Tuesday 27 Jan 2015 (Local Time) from SBPS Reporting Station
Few Clouds Few Clouds  
Wind Chill: 25°   Ceiling: Unl
Heat Index: 26°   Visibility: 6mi
Dew Point: 22°   Wind: 5mph
Humidity: 83%   Direction: 40°NE
Pressure: 29.97"   Gusts: NA
Location:  15.95°S, 39.53°W
Report Text: SBPS 270300Z 04004KT 9999 FEW015 25/22 Q1015
Loading
Personal Weather Stations






























Interactive Weather Map New forecast layout! Learn more

10-Day Weather Forecast

Advertisements
Track Severe Weather on mobile